Time;durP1;ratioP1;P1;durP2;ratioP2;P2;SDS_P1;SDS_P2;PMS_P1;PMS_P2;Temp;Humidity;BMP_temperature;BMP_pressure;BME280_temperature;BME280_humidity;BME280_pressure;Samples;Min_cycle;Max_cycle;Signal;HPM_P1;HPM_P2
2021/12/19 00:00:37;;;;;;;9.30;3.90;;;;;;;;;;6228672;28;20272;-65
2021/12/19 00:04:12;;;;;;;4.07;3.00;;;;;;;;;;6235007;28;22972;-66
2021/12/19 00:11:13;;;;;;;12.43;3.93;;;;;;;;;;6240532;28;20324;-65
2021/12/19 00:14:34;;;;;;;7.23;3.23;;;;;;;;;;6243027;28;20633;-66
2021/12/19 00:17:54;;;;;;;8.97;3.73;;;;;;;;;;6233397;28;20224;-66
2021/12/19 00:21:16;;;;;;;14.90;5.10;;;;;;;;;;6223239;28;20252;-66
2021/12/19 00:24:38;;;;;;;8.20;4.03;;;;;;;;;;6232769;28;20264;-66
2021/12/19 00:27:59;;;;;;;6.47;4.80;;;;;;;;;;6231400;28;20805;-65
2021/12/19 00:31:20;;;;;;;8.80;4.00;;;;;;;;;;6217740;28;20320;-65
2021/12/19 00:34:41;;;;;;;7.60;4.50;;;;;;;;;;6227578;28;20225;-65
2021/12/19 00:38:02;;;;;;;7.77;4.50;;;;;;;;;;6236212;28;20233;-66
2021/12/19 00:41:24;;;;;;;12.70;5.03;;;;;;;;;;6215410;28;20769;-64
2021/12/19 00:44:45;;;;;;;7.67;4.63;;;;;;;;;;6241283;28;20228;-65
2021/12/19 00:48:07;;;;;;;10.20;5.60;;;;;;;;;;6243586;28;20248;-63
2021/12/19 00:51:28;;;;;;;10.67;6.47;;;;;;;;;;6244814;28;20492;-65
2021/12/19 00:54:49;;;;;;;11.07;5.33;;;;;;;;;;6246029;28;20217;-65
2021/12/19 00:58:11;;;;;;;13.73;5.53;;;;;;;;;;6236793;28;20244;-67
2021/12/19 01:01:33;;;;;;;13.07;5.73;;;;;;;;;;6236306;28;20638;-66
2021/12/19 01:04:54;;;;;;;10.33;4.33;;;;;;;;;;6232929;28;20232;-65
2021/12/19 01:08:15;;;;;;;9.97;5.80;;;;;;;;;;6238716;28;20272;-66
2021/12/19 01:11:37;;;;;;;12.20;5.60;;;;;;;;;;6236282;28;20232;-65
2021/12/19 01:14:59;;;;;;;11.03;4.30;;;;;;;;;;6241241;28;20228;-66
2021/12/19 01:18:20;;;;;;;11.27;5.10;;;;;;;;;;6240616;28;20224;-66
2021/12/19 01:21:41;;;;;;;22.50;5.77;;;;;;;;;;6236736;28;20271;-66
2021/12/19 01:25:03;;;;;;;11.57;4.80;;;;;;;;;;6235180;28;20286;-64
2021/12/19 01:28:23;;;;;;;9.77;5.80;;;;;;;;;;6241673;28;20283;-65
2021/12/19 01:31:46;;;;;;;16.07;5.17;;;;;;;;;;6235020;28;20233;-66
2021/12/19 01:35:08;;;;;;;9.90;4.87;;;;;;;;;;6230524;28;20224;-65
2021/12/19 01:38:30;;;;;;;10.37;5.20;;;;;;;;;;6236639;28;20241;-66
2021/12/19 01:41:52;;;;;;;9.53;5.87;;;;;;;;;;6208903;28;20224;-65
2021/12/19 01:45:16;;;;;;;9.80;6.23;;;;;;;;;;6219017;28;20613;-66
2021/12/19 01:48:38;;;;;;;9.10;5.13;;;;;;;;;;6228589;28;20228;-66
2021/12/19 01:52:00;;;;;;;10.70;4.90;;;;;;;;;;6233823;28;20314;-66
2021/12/19 01:55:20;;;;;;;10.60;5.10;;;;;;;;;;6230743;28;20224;-66
2021/12/19 01:58:42;;;;;;;11.43;4.67;;;;;;;;;;6234331;28;20507;-66
2021/12/19 02:02:03;;;;;;;12.27;6.73;;;;;;;;;;6224810;28;20237;-65
2021/12/19 02:05:27;;;;;;;13.70;5.33;;;;;;;;;;6237596;28;20236;-66
2021/12/19 02:08:49;;;;;;;12.50;4.83;;;;;;;;;;6224257;28;20232;-65
2021/12/19 02:12:10;;;;;;;8.23;5.40;;;;;;;;;;6232185;28;20232;-65
2021/12/19 02:15:32;;;;;;;14.70;5.23;;;;;;;;;;6232247;28;20677;-64
2021/12/19 02:18:53;;;;;;;14.20;5.63;;;;;;;;;;6229191;28;20331;-64
2021/12/19 02:22:15;;;;;;;11.70;5.47;;;;;;;;;;6227385;28;20224;-66
2021/12/19 02:25:36;;;;;;;15.27;5.27;;;;;;;;;;6234791;28;20314;-66
2021/12/19 02:28:57;;;;;;;12.33;5.07;;;;;;;;;;6235425;28;20295;-64
2021/12/19 02:32:18;;;;;;;11.80;3.77;;;;;;;;;;6234518;28;20228;-64
2021/12/19 02:35:39;;;;;;;21.70;7.00;;;;;;;;;;6235849;28;20225;-65
2021/12/19 02:39:36;;;;;;;9.60;5.07;;;;;;;;;;6231728;28;20237;-66
2021/12/19 02:50:17;;;;;;;13.20;4.47;;;;;;;;;;6221642;28;20775;-65
2021/12/19 02:53:39;;;;;;;9.03;5.27;;;;;;;;;;6228545;28;20348;-65
2021/12/19 02:57:02;;;;;;;16.57;5.40;;;;;;;;;;6228325;28;20229;-65
2021/12/19 03:00:24;;;;;;;12.57;6.40;;;;;;;;;;6226848;28;20243;-66
2021/12/19 03:03:45;;;;;;;8.00;4.83;;;;;;;;;;6226953;28;20229;-66
2021/12/19 03:07:06;;;;;;;13.83;4.70;;;;;;;;;;6228886;28;20220;-65
2021/12/19 03:11:07;;;;;;;12.40;6.00;;;;;;;;;;6227479;28;20227;-65
2021/12/19 03:18:06;;;;;;;6.27;4.40;;;;;;;;;;6225148;28;20409;-65
2021/12/19 03:21:27;;;;;;;12.43;5.37;;;;;;;;;;6229591;28;20236;-66
2021/12/19 03:24:48;;;;;;;8.10;4.10;;;;;;;;;;6228180;28;20225;-65
2021/12/19 03:28:10;;;;;;;11.63;5.33;;;;;;;;;;6228845;28;20237;-66
2021/12/19 03:31:33;;;;;;;8.60;4.90;;;;;;;;;;6226414;28;20613;-66
2021/12/19 03:34:54;;;;;;;8.50;4.43;;;;;;;;;;6193993;28;20224;-65
2021/12/19 03:38:17;;;;;;;15.83;4.23;;;;;;;;;;6203175;28;20232;-66
2021/12/19 03:41:38;;;;;;;6.47;3.50;;;;;;;;;;6226070;28;20233;-65
2021/12/19 03:44:58;;;;;;;5.77;3.73;;;;;;;;;;6219572;28;20228;-65
2021/12/19 03:48:20;;;;;;;7.90;1.93;;;;;;;;;;6229996;28;20232;-66
2021/12/19 03:51:41;;;;;;;5.53;2.10;;;;;;;;;;6227720;28;20240;-65
2021/12/19 03:55:02;;;;;;;2.00;1.40;;;;;;;;;;6215563;28;20232;-65
2021/12/19 03:58:23;;;;;;;1.47;1.20;;;;;;;;;;6227927;28;20229;-66
2021/12/19 04:01:49;;;;;;;3.13;1.80;;;;;;;;;;6226655;28;20665;-65
2021/12/19 04:05:11;;;;;;;3.70;1.73;;;;;;;;;;6229337;28;20233;-66
2021/12/19 04:08:32;;;;;;;4.03;1.90;;;;;;;;;;6229602;28;20260;-65
2021/12/19 04:11:55;;;;;;;2.90;1.33;;;;;;;;;;6230748;28;20614;-65
2021/12/19 04:15:16;;;;;;;3.47;2.00;;;;;;;;;;6232699;28;20601;-64
2021/12/19 04:18:37;;;;;;;9.70;2.00;;;;;;;;;;6230295;28;20224;-65
2021/12/19 04:22:00;;;;;;;2.90;1.87;;;;;;;;;;6231968;28;20505;-65
2021/12/19 04:25:21;;;;;;;4.73;2.20;;;;;;;;;;6230542;28;20315;-65
2021/12/19 04:28:42;;;;;;;3.73;2.30;;;;;;;;;;6231120;28;20224;-65
2021/12/19 04:32:06;;;;;;;5.43;2.00;;;;;;;;;;6231052;28;20260;-65
2021/12/19 04:35:31;;;;;;;3.17;2.30;;;;;;;;;;6231155;28;20224;-64
2021/12/19 04:39:18;;;;;;;3.20;1.97;;;;;;;;;;6231409;28;20236;-65
2021/12/19 04:53:37;;;;;;;2.90;2.60;;;;;;;;;;6203622;28;20230;-65
2021/12/19 04:57:09;;;;;;;3.20;2.90;;;;;;;;;;6208076;28;20744;-66
2021/12/19 05:00:36;;;;;;;2.27;2.00;;;;;;;;;;6200313;28;20237;-64
2021/12/19 05:04:10;;;;;;;4.73;2.27;;;;;;;;;;6198545;28;20324;-65
2021/12/19 05:14:51;;;;;;;4.23;2.60;;;;;;;;;;6228483;28;20232;-63
2021/12/19 05:18:12;;;;;;;2.90;2.57;;;;;;;;;;6221919;28;20228;-65
2021/12/19 05:21:37;;;;;;;7.37;2.60;;;;;;;;;;6222782;28;21203;-65
2021/12/19 05:25:08;;;;;;;6.20;2.30;;;;;;;;;;6214440;28;20225;-65
2021/12/19 05:28:28;;;;;;;7.10;2.90;;;;;;;;;;6227381;28;20236;-65
2021/12/19 05:31:49;;;;;;;5.93;3.10;;;;;;;;;;6226564;28;20233;-65
2021/12/19 05:35:12;;;;;;;8.67;2.83;;;;;;;;;;6224161;28;20233;-65
2021/12/19 05:45:51;;;;;;;6.13;3.00;;;;;;;;;;6216217;28;20324;-66
2021/12/19 05:49:12;;;;;;;9.87;3.20;;;;;;;;;;6237540;28;20307;-65
2021/12/19 05:52:33;;;;;;;9.30;3.23;;;;;;;;;;6241506;28;20319;-65
2021/12/19 05:55:56;;;;;;;6.77;3.43;;;;;;;;;;6238678;28;20606;-66
2021/12/19 05:59:17;;;;;;;5.67;3.30;;;;;;;;;;6226176;28;20564;-66
2021/12/19 06:02:37;;;;;;;7.50;3.23;;;;;;;;;;6224913;28;20614;-65
2021/12/19 06:05:58;;;;;;;7.40;3.43;;;;;;;;;;6228759;28;20229;-65
2021/12/19 06:09:19;;;;;;;9.60;3.77;;;;;;;;;;6224730;28;20610;-65
2021/12/19 06:12:42;;;;;;;7.40;2.97;;;;;;;;;;6230562;28;20497;-64
2021/12/19 06:16:04;;;;;;;5.40;3.13;;;;;;;;;;6232046;28;20260;-66
2021/12/19 06:19:25;;;;;;;6.90;2.83;;;;;;;;;;6227536;28;20653;-65
2021/12/19 06:22:45;;;;;;;7.20;3.53;;;;;;;;;;6226690;28;20230;-66
2021/12/19 06:26:10;;;;;;;6.53;2.80;;;;;;;;;;6232191;28;20224;-65
2021/12/19 06:29:33;;;;;;;9.70;3.60;;;;;;;;;;6226618;28;20233;-65
2021/12/19 06:32:54;;;;;;;9.43;3.33;;;;;;;;;;6224355;28;20241;-65
2021/12/19 06:36:15;;;;;;;9.40;3.03;;;;;;;;;;6225223;28;20221;-65
2021/12/19 06:39:36;;;;;;;7.87;4.03;;;;;;;;;;6228812;28;20319;-65
2021/12/19 06:42:57;;;;;;;7.47;3.03;;;;;;;;;;6229917;28;20232;-65
2021/12/19 06:46:19;;;;;;;9.03;4.07;;;;;;;;;;6225384;28;20316;-65
2021/12/19 06:49:40;;;;;;;7.70;2.70;;;;;;;;;;6227220;28;21662;-66
2021/12/19 06:53:01;;;;;;;9.83;3.13;;;;;;;;;;6223387;28;20232;-66
2021/12/19 06:56:22;;;;;;;7.07;2.57;;;;;;;;;;6231869;28;20216;-66
2021/12/19 06:59:43;;;;;;;8.27;2.73;;;;;;;;;;6223225;28;20808;-66
2021/12/19 07:03:05;;;;;;;5.43;2.77;;;;;;;;;;6224133;28;20240;-66
2021/12/19 07:06:26;;;;;;;6.67;3.33;;;;;;;;;;6230388;28;20232;-65
2021/12/19 07:09:47;;;;;;;6.70;2.97;;;;;;;;;;6229283;28;20935;-65
2021/12/19 07:13:08;;;;;;;5.43;2.57;;;;;;;;;;6233579;28;20507;-66
2021/12/19 07:16:29;;;;;;;5.53;2.57;;;;;;;;;;6231778;28;20326;-64
2021/12/19 07:19:51;;;;;;;8.03;2.83;;;;;;;;;;6218838;28;20225;-65
2021/12/19 07:23:13;;;;;;;9.20;3.20;;;;;;;;;;6230708;28;20236;-64
2021/12/19 07:26:34;;;;;;;11.03;4.67;;;;;;;;;;6227352;28;20247;-65
2021/12/19 07:29:57;;;;;;;7.67;2.13;;;;;;;;;;6216750;28;20273;-66
2021/12/19 07:33:18;;;;;;;14.13;4.37;;;;;;;;;;6221827;28;20257;-65
2021/12/19 07:36:43;;;;;;;7.57;2.70;;;;;;;;;;6223590;28;20312;-65
2021/12/19 07:40:13;;;;;;;7.07;2.43;;;;;;;;;;6215109;28;20224;-65
2021/12/19 07:43:34;;;;;;;4.37;2.97;;;;;;;;;;6224430;28;20237;-66
2021/12/19 07:46:56;;;;;;;8.57;2.70;;;;;;;;;;6224817;28;20561;-65
2021/12/19 07:50:17;;;;;;;5.63;2.67;;;;;;;;;;6218947;28;21613;-66
2021/12/19 07:53:39;;;;;;;19.80;3.73;;;;;;;;;;6226615;28;20225;-63
2021/12/19 07:56:59;;;;;;;12.30;3.30;;;;;;;;;;6229383;28;20232;-63
2021/12/19 08:00:20;;;;;;;8.03;3.20;;;;;;;;;;6221247;28;20232;-64
2021/12/19 08:03:41;;;;;;;5.07;2.27;;;;;;;;;;6222378;28;20308;-64
2021/12/19 08:07:02;;;;;;;7.57;2.23;;;;;;;;;;6223393;28;20347;-64
2021/12/19 08:14:03;;;;;;;9.50;4.40;;;;;;;;;;6223097;28;20231;-65
2021/12/19 08:17:24;;;;;;;8.80;2.77;;;;;;;;;;6218459;28;20229;-65
2021/12/19 08:20:45;;;;;;;6.83;2.77;;;;;;;;;;6217062;28;20493;-67
2021/12/19 08:24:10;;;;;;;8.50;3.50;;;;;;;;;;6212911;28;20244;-68
2021/12/19 08:27:34;;;;;;;10.17;2.97;;;;;;;;;;6205793;28;20240;-68
2021/12/19 08:30:56;;;;;;;15.77;6.10;;;;;;;;;;6200864;28;20256;-65
2021/12/19 08:34:17;;;;;;;16.23;9.67;;;;;;;;;;6192200;28;20562;-65
2021/12/19 08:37:37;;;;;;;43.70;38.13;;;;;;;;;;6199565;28;20236;-66
2021/12/19 08:40:59;;;;;;;140.27;127.73;;;;;;;;;;6202457;28;20596;-65
2021/12/19 08:44:21;;;;;;;88.07;80.23;;;;;;;;;;6202452;28;20242;-65
2021/12/19 08:47:42;;;;;;;165.50;151.17;;;;;;;;;;6206828;28;20228;-64
2021/12/19 08:51:03;;;;;;;753.80;674.77;;;;;;;;;;6218551;28;20236;-64
2021/12/19 08:54:24;;;;;;;263.30;239.70;;;;;;;;;;6212383;28;20236;-66
2021/12/19 08:57:44;;;;;;;759.63;682.67;;;;;;;;;;6208446;28;20800;-64
2021/12/19 09:01:06;;;;;;;25.97;21.13;;;;;;;;;;6211217;28;20228;-66
2021/12/19 09:04:27;;;;;;;9.73;5.90;;;;;;;;;;6218128;28;20240;-66
2021/12/19 09:07:50;;;;;;;9.80;3.53;;;;;;;;;;6210444;28;20244;-66
2021/12/19 09:11:11;;;;;;;14.07;3.63;;;;;;;;;;6209443;28;20228;-66
2021/12/19 09:14:32;;;;;;;5.80;2.50;;;;;;;;;;6207623;28;20673;-64
2021/12/19 09:17:54;;;;;;;9.27;3.43;;;;;;;;;;6204940;28;20232;-67
2021/12/19 09:21:15;;;;;;;11.13;3.23;;;;;;;;;;6212736;28;20232;-66
2021/12/19 09:24:36;;;;;;;9.23;4.27;;;;;;;;;;6219025;28;20253;-66
2021/12/19 09:27:56;;;;;;;7.07;2.83;;;;;;;;;;6215660;28;20228;-65
2021/12/19 09:31:17;;;;;;;9.03;3.33;;;;;;;;;;6214305;28;20224;-67
2021/12/19 09:34:40;;;;;;;7.93;3.23;;;;;;;;;;6229848;28;20225;-66
2021/12/19 09:38:01;;;;;;;10.10;2.93;;;;;;;;;;6227697;28;20610;-65
2021/12/19 09:41:28;;;;;;;8.57;2.63;;;;;;;;;;6223130;28;20232;-66
2021/12/19 09:44:49;;;;;;;9.10;2.30;;;;;;;;;;6213074;28;20314;-65
2021/12/19 09:48:10;;;;;;;8.17;3.73;;;;;;;;;;6216626;28;20252;-65
2021/12/19 09:51:32;;;;;;;12.73;2.97;;;;;;;;;;6229824;28;20220;-66
2021/12/19 09:54:53;;;;;;;8.47;2.60;;;;;;;;;;6211298;28;20325;-66
2021/12/19 09:58:14;;;;;;;9.30;2.63;;;;;;;;;;6226466;28;20308;-67
2021/12/19 10:01:35;;;;;;;8.10;2.83;;;;;;;;;;6216114;28;20248;-66
2021/12/19 10:04:56;;;;;;;9.43;2.93;;;;;;;;;;6210674;28;20224;-67
2021/12/19 10:08:24;;;;;;;6.87;2.70;;;;;;;;;;6229238;28;20232;-66
2021/12/19 10:11:57;;;;;;;13.27;3.40;;;;;;;;;;6227828;28;20228;-67
2021/12/19 10:15:22;;;;;;;9.10;3.87;;;;;;;;;;6221978;28;20228;-67
2021/12/19 10:18:50;;;;;;;13.33;4.43;;;;;;;;;;6225209;28;21591;-66
2021/12/19 10:22:28;;;;;;;8.73;2.77;;;;;;;;;;6227709;28;20232;-65
2021/12/19 10:25:58;;;;;;;7.53;2.97;;;;;;;;;;6229690;28;20553;-66
2021/12/19 10:29:19;;;;;;;5.93;2.40;;;;;;;;;;6222507;28;20512;-67
2021/12/19 10:32:53;;;;;;;11.23;5.17;;;;;;;;;;6218662;28;20261;-67
2021/12/19 10:36:15;;;;;;;15.40;4.30;;;;;;;;;;6220481;28;20534;-65
2021/12/19 10:39:41;;;;;;;12.97;4.20;;;;;;;;;;6224344;28;20633;-66
2021/12/19 10:43:04;;;;;;;11.00;4.33;;;;;;;;;;6225988;28;20232;-67
2021/12/19 10:46:28;;;;;;;14.33;3.37;;;;;;;;;;6225906;28;20541;-65
2021/12/19 10:49:48;;;;;;;14.87;3.50;;;;;;;;;;6198280;28;20232;-66
2021/12/19 10:53:09;;;;;;;8.83;3.23;;;;;;;;;;6226932;28;20237;-65
2021/12/19 10:56:32;;;;;;;11.97;2.90;;;;;;;;;;6236455;28;20244;-64
2021/12/19 10:59:54;;;;;;;9.87;3.27;;;;;;;;;;6220344;28;20229;-66
2021/12/19 11:03:23;;;;;;;7.77;2.90;;;;;;;;;;6224591;28;20277;-64
2021/12/19 11:06:45;;;;;;;11.00;3.27;;;;;;;;;;6219926;28;20538;-65
2021/12/19 11:10:27;;;;;;;13.27;4.80;;;;;;;;;;6208747;28;20248;-66
2021/12/19 11:13:48;;;;;;;10.57;3.03;;;;;;;;;;6230998;28;20236;-65
2021/12/19 11:17:14;;;;;;;8.77;3.33;;;;;;;;;;6220381;28;20232;-66
2021/12/19 11:20:35;;;;;;;9.07;3.33;;;;;;;;;;6217328;28;20251;-66
2021/12/19 11:23:56;;;;;;;9.93;2.80;;;;;;;;;;6217816;28;20233;-66
2021/12/19 11:27:20;;;;;;;9.30;3.13;;;;;;;;;;6222106;28;22426;-63
2021/12/19 11:30:41;;;;;;;9.40;2.77;;;;;;;;;;6217859;28;20224;-65
2021/12/19 11:34:15;;;;;;;6.53;3.77;;;;;;;;;;6215588;28;20225;-65
2021/12/19 11:37:39;;;;;;;9.77;3.63;;;;;;;;;;6216241;28;20479;-65
2021/12/19 11:41:07;;;;;;;9.43;2.60;;;;;;;;;;6213801;28;20598;-64
2021/12/19 11:44:33;;;;;;;8.13;3.67;;;;;;;;;;6216101;28;20319;-66
2021/12/19 11:47:58;;;;;;;10.87;3.93;;;;;;;;;;6216427;28;20533;-66
2021/12/19 11:51:22;;;;;;;12.93;4.13;;;;;;;;;;6222656;28;20252;-65
2021/12/19 11:54:44;;;;;;;10.27;2.43;;;;;;;;;;6227882;28;20239;-66
2021/12/19 11:58:18;;;;;;;9.73;2.97;;;;;;;;;;6233193;28;20224;-66
2021/12/19 12:01:42;;;;;;;8.60;2.90;;;;;;;;;;6222720;28;20221;-66
2021/12/19 12:05:22;;;;;;;7.30;3.67;;;;;;;;;;6221699;28;20612;-65
2021/12/19 12:09:07;;;;;;;8.57;4.03;;;;;;;;;;6221236;28;20235;-65
2021/12/19 12:12:35;;;;;;;6.20;3.03;;;;;;;;;;6210153;28;20240;-66
2021/12/19 12:16:04;;;;;;;8.27;2.73;;;;;;;;;;6219910;28;20231;-65
2021/12/19 12:19:47;;;;;;;10.37;3.63;;;;;;;;;;6207047;28;20782;-66
2021/12/19 12:23:10;;;;;;;8.47;2.80;;;;;;;;;;6208550;28;20217;-65
2021/12/19 12:26:37;;;;;;;6.07;2.30;;;;;;;;;;6211087;28;20315;-65
2021/12/19 12:29:59;;;;;;;6.87;2.60;;;;;;;;;;6219612;28;20727;-66
2021/12/19 12:33:22;;;;;;;9.00;2.83;;;;;;;;;;6220506;28;20595;-65
2021/12/19 12:36:43;;;;;;;8.27;3.40;;;;;;;;;;6216624;28;20232;-65
2021/12/19 12:40:24;;;;;;;9.27;3.83;;;;;;;;;;6219847;28;20228;-66
2021/12/19 12:43:46;;;;;;;8.87;4.10;;;;;;;;;;6223813;28;20637;-65
2021/12/19 12:47:08;;;;;;;13.20;3.27;;;;;;;;;;6221277;28;22598;-67
2021/12/19 12:50:28;;;;;;;9.47;2.90;;;;;;;;;;6215741;28;20848;-65
2021/12/19 12:53:52;;;;;;;8.77;2.97;;;;;;;;;;6215158;28;20242;-66
2021/12/19 12:57:15;;;;;;;10.87;3.17;;;;;;;;;;6215414;28;20493;-66
2021/12/19 13:00:37;;;;;;;8.90;3.37;;;;;;;;;;6217488;28;20236;-65
2021/12/19 13:04:01;;;;;;;10.20;3.40;;;;;;;;;;6212332;28;20328;-66
2021/12/19 13:07:23;;;;;;;9.50;3.27;;;;;;;;;;6219207;28;20232;-64
2021/12/19 13:10:44;;;;;;;7.50;3.40;;;;;;;;;;6219636;28;20236;-66
2021/12/19 13:14:17;;;;;;;10.27;3.60;;;;;;;;;;6222918;28;20412;-66
2021/12/19 13:17:40;;;;;;;6.77;2.67;;;;;;;;;;6222116;28;20602;-67
2021/12/19 13:21:02;;;;;;;12.33;3.63;;;;;;;;;;6220181;28;20229;-66
2021/12/19 13:24:24;;;;;;;5.77;2.27;;;;;;;;;;6219075;28;20233;-66
2021/12/19 13:27:46;;;;;;;10.97;3.00;;;;;;;;;;6222408;28;20256;-64
2021/12/19 13:31:07;;;;;;;5.13;3.13;;;;;;;;;;6224438;28;20228;-66
2021/12/19 13:34:39;;;;;;;7.67;3.27;;;;;;;;;;6226685;28;20247;-66
2021/12/19 13:38:04;;;;;;;7.10;2.87;;;;;;;;;;6214768;28;20227;-66
2021/12/19 13:41:25;;;;;;;8.33;3.27;;;;;;;;;;6220641;28;20833;-66
2021/12/19 13:44:47;;;;;;;7.47;2.47;;;;;;;;;;6209775;28;20614;-67
2021/12/19 13:48:13;;;;;;;9.07;2.80;;;;;;;;;;6207860;28;20232;-66
2021/12/19 13:51:37;;;;;;;7.37;2.10;;;;;;;;;;6212220;28;20233;-67
2021/12/19 13:55:06;;;;;;;8.07;2.73;;;;;;;;;;6211737;28;20232;-66
2021/12/19 13:58:32;;;;;;;13.20;4.03;;;;;;;;;;6212305;28;20248;-66
2021/12/19 14:01:53;;;;;;;7.87;2.90;;;;;;;;;;6214443;28;20232;-65
2021/12/19 14:05:36;;;;;;;11.53;2.83;;;;;;;;;;6214741;28;20236;-66
2021/12/19 14:08:59;;;;;;;9.73;2.63;;;;;;;;;;6223002;28;20236;-67
2021/12/19 14:12:27;;;;;;;13.27;4.57;;;;;;;;;;6219282;28;20939;-67
2021/12/19 14:15:50;;;;;;;11.77;3.07;;;;;;;;;;6222781;28;20830;-67
2021/12/19 14:19:22;;;;;;;12.43;3.77;;;;;;;;;;6216649;28;20236;-67
2021/12/19 14:22:43;;;;;;;12.93;2.60;;;;;;;;;;6205400;28;20339;-67
2021/12/19 14:26:06;;;;;;;9.87;3.27;;;;;;;;;;6216473;28;20221;-64
2021/12/19 14:29:29;;;;;;;11.23;4.13;;;;;;;;;;6212848;28;20248;-67
2021/12/19 14:32:51;;;;;;;11.20;3.67;;;;;;;;;;6209201;28;20260;-67
2021/12/19 14:36:13;;;;;;;15.33;4.33;;;;;;;;;;6201894;28;20244;-67
2021/12/19 14:39:34;;;;;;;10.43;3.00;;;;;;;;;;6204032;28;20224;-65
2021/12/19 14:43:00;;;;;;;15.87;4.23;;;;;;;;;;6204996;28;20600;-66
2021/12/19 14:46:27;;;;;;;14.37;5.00;;;;;;;;;;6209687;28;20300;-65
2021/12/19 14:49:47;;;;;;;10.63;4.67;;;;;;;;;;6210908;28;20240;-67
2021/12/19 14:53:11;;;;;;;15.60;3.57;;;;;;;;;;6209435;28;20220;-66
2021/12/19 14:56:32;;;;;;;13.57;4.33;;;;;;;;;;6208570;28;22328;-66
2021/12/19 14:59:54;;;;;;;17.27;3.97;;;;;;;;;;6205617;28;20233;-67
2021/12/19 15:03:15;;;;;;;14.40;4.73;;;;;;;;;;6199308;28;20228;-65
2021/12/19 15:06:41;;;;;;;16.57;5.70;;;;;;;;;;6216176;28;20232;-66
2021/12/19 15:10:02;;;;;;;22.67;8.90;;;;;;;;;;6218541;28;20229;-67
2021/12/19 15:13:23;;;;;;;13.30;4.53;;;;;;;;;;6218503;28;20542;-67
2021/12/19 15:16:45;;;;;;;20.63;5.37;;;;;;;;;;6217854;28;20228;-67
2021/12/19 15:20:08;;;;;;;20.30;6.07;;;;;;;;;;6209004;28;20240;-67
2021/12/19 15:23:28;;;;;;;20.30;6.80;;;;;;;;;;6218264;28;20256;-67
2021/12/19 15:26:49;;;;;;;18.53;5.93;;;;;;;;;;6218554;28;20236;-66
2021/12/19 15:30:12;;;;;;;18.00;5.87;;;;;;;;;;6215844;28;20220;-67
2021/12/19 15:33:35;;;;;;;25.80;6.80;;;;;;;;;;6215190;28;20224;-66
2021/12/19 15:36:56;;;;;;;17.27;5.73;;;;;;;;;;6213373;28;20232;-67
2021/12/19 15:40:17;;;;;;;16.03;4.97;;;;;;;;;;6213884;28;20252;-67
2021/12/19 15:43:38;;;;;;;15.17;5.00;;;;;;;;;;6210904;28;20280;-66
2021/12/19 15:46:59;;;;;;;19.27;6.00;;;;;;;;;;6212846;28;20232;-66
2021/12/19 15:50:21;;;;;;;18.47;6.23;;;;;;;;;;6208478;28;20629;-67
2021/12/19 15:53:42;;;;;;;21.17;5.27;;;;;;;;;;6207023;28;20225;-67
2021/12/19 15:57:04;;;;;;;21.43;5.83;;;;;;;;;;6204560;28;20233;-67
2021/12/19 16:00:25;;;;;;;21.20;5.97;;;;;;;;;;6213433;28;20517;-67
2021/12/19 16:03:48;;;;;;;15.23;6.10;;;;;;;;;;6206577;28;20622;-67
2021/12/19 16:07:10;;;;;;;15.10;5.73;;;;;;;;;;6212863;28;20232;-65
2021/12/19 16:10:31;;;;;;;19.67;5.63;;;;;;;;;;6211205;28;20607;-68
2021/12/19 16:13:52;;;;;;;21.10;6.90;;;;;;;;;;6208644;28;20263;-66
2021/12/19 16:17:13;;;;;;;26.37;6.37;;;;;;;;;;6210588;28;20228;-66
2021/12/19 16:20:34;;;;;;;19.97;5.97;;;;;;;;;;6220798;28;20549;-67
2021/12/19 16:23:57;;;;;;;19.10;5.53;;;;;;;;;;6226476;28;20228;-66
2021/12/19 16:27:17;;;;;;;17.97;7.73;;;;;;;;;;6225642;28;20224;-65
2021/12/19 16:30:39;;;;;;;21.27;7.40;;;;;;;;;;6232281;28;20535;-67
2021/12/19 16:34:02;;;;;;;17.97;5.73;;;;;;;;;;6234548;28;20319;-67
2021/12/19 16:37:23;;;;;;;15.70;5.83;;;;;;;;;;6230139;28;20295;-67
2021/12/19 16:40:46;;;;;;;20.93;7.33;;;;;;;;;;6234498;28;20236;-68
2021/12/19 16:44:07;;;;;;;24.67;7.27;;;;;;;;;;6221232;28;20229;-68
2021/12/19 16:47:28;;;;;;;21.27;9.10;;;;;;;;;;6214790;28;20354;-67
2021/12/19 16:50:49;;;;;;;23.00;8.03;;;;;;;;;;6222156;28;20319;-67
2021/12/19 16:54:10;;;;;;;17.63;5.80;;;;;;;;;;6221169;28;20229;-68
2021/12/19 16:57:32;;;;;;;20.50;5.87;;;;;;;;;;6221187;28;20649;-66
2021/12/19 17:00:53;;;;;;;18.20;7.33;;;;;;;;;;6222349;28;20712;-67
2021/12/19 17:04:14;;;;;;;21.53;6.70;;;;;;;;;;6209802;28;20232;-67
2021/12/19 17:07:35;;;;;;;26.37;6.20;;;;;;;;;;6208888;28;20229;-67
2021/12/19 17:10:56;;;;;;;22.37;6.73;;;;;;;;;;6210393;28;21908;-69
2021/12/19 17:14:21;;;;;;;18.70;7.20;;;;;;;;;;6219845;28;20224;-66
2021/12/19 17:17:41;;;;;;;14.83;6.50;;;;;;;;;;6221070;28;20237;-69
2021/12/19 17:21:02;;;;;;;26.80;8.37;;;;;;;;;;6226459;28;20232;-68
2021/12/19 17:24:23;;;;;;;25.70;8.40;;;;;;;;;;6224542;28;20225;-66
2021/12/19 17:27:44;;;;;;;18.47;9.23;;;;;;;;;;6223590;28;21022;-67
2021/12/19 17:31:06;;;;;;;22.70;9.57;;;;;;;;;;6228167;28;20233;-67
2021/12/19 17:34:27;;;;;;;28.70;9.50;;;;;;;;;;6214200;28;20225;-65
2021/12/19 17:37:48;;;;;;;22.07;7.67;;;;;;;;;;6227987;28;20225;-67
2021/12/19 17:41:09;;;;;;;18.80;7.33;;;;;;;;;;6231569;28;20232;-65
2021/12/19 17:44:30;;;;;;;26.53;8.77;;;;;;;;;;6228047;28;20715;-68
2021/12/19 17:47:53;;;;;;;19.77;7.00;;;;;;;;;;6226586;28;20514;-67
2021/12/19 17:51:14;;;;;;;22.13;5.90;;;;;;;;;;6229453;28;20319;-67
2021/12/19 17:54:35;;;;;;;21.03;7.73;;;;;;;;;;6228093;28;20228;-65
2021/12/19 17:57:56;;;;;;;18.83;7.50;;;;;;;;;;6234614;28;20253;-67
2021/12/19 18:01:18;;;;;;;17.60;6.27;;;;;;;;;;6231172;28;20653;-66
2021/12/19 18:04:41;;;;;;;16.50;6.73;;;;;;;;;;6235102;28;20922;-66
2021/12/19 18:08:02;;;;;;;23.07;8.77;;;;;;;;;;6227551;28;20233;-67
2021/12/19 18:11:24;;;;;;;13.27;6.83;;;;;;;;;;6228101;28;20224;-66
2021/12/19 18:14:46;;;;;;;19.63;7.50;;;;;;;;;;6223162;28;20236;-68
2021/12/19 18:18:07;;;;;;;29.57;8.07;;;;;;;;;;6222396;28;20237;-68
2021/12/19 18:21:29;;;;;;;20.77;7.80;;;;;;;;;;6224339;28;20240;-67
2021/12/19 18:24:50;;;;;;;20.77;6.77;;;;;;;;;;6211050;28;20229;-66
2021/12/19 18:28:11;;;;;;;15.50;7.23;;;;;;;;;;6226334;28;20237;-67
2021/12/19 18:31:34;;;;;;;21.50;6.77;;;;;;;;;;6224672;28;20241;-66
2021/12/19 18:34:57;;;;;;;18.23;7.07;;;;;;;;;;6227681;28;20540;-68
2021/12/19 18:38:19;;;;;;;16.77;7.50;;;;;;;;;;6230769;28;20240;-66
2021/12/19 18:41:48;;;;;;;23.17;9.10;;;;;;;;;;6223875;28;20241;-70
2021/12/19 18:45:15;;;;;;;20.13;9.10;;;;;;;;;;6223892;28;20406;-69
2021/12/19 18:48:49;;;;;;;22.67;8.67;;;;;;;;;;6221457;28;20232;-69
2021/12/19 18:52:18;;;;;;;26.60;8.80;;;;;;;;;;6220249;28;20268;-70
2021/12/19 18:55:50;;;;;;;21.60;7.83;;;;;;;;;;6229166;28;20233;-68
2021/12/19 18:59:17;;;;;;;20.93;8.77;;;;;;;;;;6220663;28;20703;-68
2021/12/19 19:02:53;;;;;;;28.03;8.77;;;;;;;;;;6221276;28;20232;-68
2021/12/19 19:06:23;;;;;;;17.80;7.13;;;;;;;;;;6231927;28;20519;-70
2021/12/19 19:09:46;;;;;;;15.83;5.87;;;;;;;;;;6225863;28;20236;-70
2021/12/19 19:13:09;;;;;;;27.83;11.80;;;;;;;;;;6214935;28;20232;-69
2021/12/19 19:16:31;;;;;;;26.60;17.70;;;;;;;;;;6223730;28;20311;-68
2021/12/19 19:19:52;;;;;;;35.37;14.87;;;;;;;;;;6220895;28;20224;-68
2021/12/19 19:23:14;;;;;;;26.03;10.47;;;;;;;;;;6221039;28;20243;-68
2021/12/19 19:26:36;;;;;;;20.40;7.80;;;;;;;;;;6214655;28;20320;-68
2021/12/19 19:29:59;;;;;;;21.20;11.17;;;;;;;;;;6215379;28;20625;-68
2021/12/19 19:33:20;;;;;;;22.33;9.13;;;;;;;;;;6221339;28;20323;-69
2021/12/19 19:36:44;;;;;;;15.97;7.10;;;;;;;;;;6227655;28;20653;-65
2021/12/19 19:40:25;;;;;;;23.70;8.40;;;;;;;;;;6219721;28;20236;-70
2021/12/19 19:44:07;;;;;;;25.17;8.07;;;;;;;;;;6230258;28;20228;-70
2021/12/19 19:51:07;;;;;;;19.80;6.80;;;;;;;;;;6226849;28;20232;-70
2021/12/19 19:54:29;;;;;;;19.60;7.50;;;;;;;;;;6231938;28;20224;-68
2021/12/19 19:57:50;;;;;;;19.63;7.87;;;;;;;;;;6241122;28;20253;-68
2021/12/19 20:01:11;;;;;;;16.73;7.83;;;;;;;;;;6229984;28;20232;-71
2021/12/19 20:04:36;;;;;;;22.77;7.63;;;;;;;;;;6231351;28;20224;-68
2021/12/19 20:07:57;;;;;;;22.53;8.53;;;;;;;;;;6227853;28;20325;-70
2021/12/19 20:11:19;;;;;;;20.63;8.47;;;;;;;;;;6224592;28;20939;-69
2021/12/19 20:14:40;;;;;;;15.87;8.50;;;;;;;;;;6226441;28;20228;-70
2021/12/19 20:18:01;;;;;;;16.67;6.87;;;;;;;;;;6165138;28;20228;-69
2021/12/19 20:21:23;;;;;;;33.93;10.63;;;;;;;;;;6219861;28;20248;-69
2021/12/19 20:24:44;;;;;;;16.33;6.13;;;;;;;;;;6233879;28;20225;-70
2021/12/19 20:28:05;;;;;;;16.20;6.90;;;;;;;;;;6213571;28;20221;-66
2021/12/19 20:31:26;;;;;;;28.53;8.60;;;;;;;;;;6225390;28;20231;-69
2021/12/19 20:34:47;;;;;;;16.40;8.10;;;;;;;;;;6228631;28;20770;-70
2021/12/19 20:38:09;;;;;;;15.60;7.10;;;;;;;;;;6222721;28;20506;-70
2021/12/19 20:41:31;;;;;;;18.13;6.67;;;;;;;;;;6226626;28;20256;-70
2021/12/19 20:44:52;;;;;;;22.80;9.77;;;;;;;;;;6212809;28;20237;-70
2021/12/19 20:48:13;;;;;;;17.70;7.80;;;;;;;;;;6223143;28;20257;-68
2021/12/19 20:51:36;;;;;;;20.03;7.40;;;;;;;;;;6227211;28;20225;-69
2021/12/19 20:54:58;;;;;;;20.67;6.93;;;;;;;;;;6226024;28;20233;-68